sensor_id;sensor_type;location;lat;lon;timestamp;pressure;altitude;pressure_sealevel;temperature;humidity
12077;BME280;12420;42.676;23.262;2024-02-28T00:00:56;94907.16;;;9.49;100.00
12077;BME280;12420;42.676;23.262;2024-02-28T00:03:22;94906.16;;;9.52;100.00
12077;BME280;12420;42.676;23.262;2024-02-28T00:05:50;94906.41;;;9.48;100.00
12077;BME280;12420;42.676;23.262;2024-02-28T00:08:17;94908.25;;;9.34;100.00
12077;BME280;12420;42.676;23.262;2024-02-28T00:10:44;94915.81;;;9.34;100.00
12077;BME280;12420;42.676;23.262;2024-02-28T00:13:11;94909.84;;;9.24;100.00
12077;BME280;12420;42.676;23.262;2024-02-28T00:15:38;94909.59;;;9.22;100.00
12077;BME280;12420;42.676;23.262;2024-02-28T00:18:05;94913.63;;;9.16;100.00
12077;BME280;12420;42.676;23.262;2024-02-28T00:20:32;94911.66;;;9.10;100.00
12077;BME280;12420;42.676;23.262;2024-02-28T00:23:00;94900.94;;;9.01;100.00
12077;BME280;12420;42.676;23.262;2024-02-28T00:25:27;94908.25;;;8.93;100.00
12077;BME280;12420;42.676;23.262;2024-02-28T00:27:53;94911.31;;;8.73;100.00
12077;BME280;12420;42.676;23.262;2024-02-28T00:30:20;94906.31;;;8.77;100.00
12077;BME280;12420;42.676;23.262;2024-02-28T00:32:47;94903.59;;;8.65;100.00
12077;BME280;12420;42.676;23.262;2024-02-28T00:35:14;94913.34;;;8.72;100.00
12077;BME280;12420;42.676;23.262;2024-02-28T00:37:40;94908.59;;;8.67;100.00
12077;BME280;12420;42.676;23.262;2024-02-28T00:40:10;94902.06;;;8.70;100.00
12077;BME280;12420;42.676;23.262;2024-02-28T00:42:37;94903.56;;;8.71;100.00
12077;BME280;12420;42.676;23.262;2024-02-28T00:45:04;94895.00;;;8.75;100.00
12077;BME280;12420;42.676;23.262;2024-02-28T00:47:31;94913.59;;;8.74;100.00
12077;BME280;12420;42.676;23.262;2024-02-28T00:49:58;94905.06;;;8.72;100.00
12077;BME280;12420;42.676;23.262;2024-02-28T00:52:24;94908.06;;;8.74;100.00
12077;BME280;12420;42.676;23.262;2024-02-28T00:54:51;94900.53;;;8.75;100.00
12077;BME280;12420;42.676;23.262;2024-02-28T00:57:19;94911.31;;;8.78;100.00
12077;BME280;12420;42.676;23.262;2024-02-28T00:59:46;94915.84;;;8.70;100.00
12077;BME280;12420;42.676;23.262;2024-02-28T01:02:12;94911.88;;;8.60;100.00
12077;BME280;12420;42.676;23.262;2024-02-28T01:04:39;94923.44;;;8.58;100.00
12077;BME280;12420;42.676;23.262;2024-02-28T01:07:06;94923.94;;;8.57;100.00
12077;BME280;12420;42.676;23.262;2024-02-28T01:09:33;94921.91;;;8.57;100.00
12077;BME280;12420;42.676;23.262;2024-02-28T01:12:00;94903.91;;;8.45;100.00
12077;BME280;12420;42.676;23.262;2024-02-28T01:14:29;94908.44;;;8.42;100.00
12077;BME280;12420;42.676;23.262;2024-02-28T01:16:56;94915.69;;;8.29;100.00
12077;BME280;12420;42.676;23.262;2024-02-28T01:19:23;94918.97;;;8.33;100.00
12077;BME280;12420;42.676;23.262;2024-02-28T01:21:50;94916.97;;;8.22;100.00
12077;BME280;12420;42.676;23.262;2024-02-28T01:24:16;94912.72;;;8.15;100.00
12077;BME280;12420;42.676;23.262;2024-02-28T01:26:42;94920.25;;;8.15;100.00
12077;BME280;12420;42.676;23.262;2024-02-28T01:29:09;94906.47;;;8.15;100.00
12077;BME280;12420;42.676;23.262;2024-02-28T01:31:38;94910.47;;;8.08;100.00
12077;BME280;12420;42.676;23.262;2024-02-28T01:34:05;94921.00;;;8.15;100.00
12077;BME280;12420;42.676;23.262;2024-02-28T01:36:32;94917.22;;;8.18;100.00
12077;BME280;12420;42.676;23.262;2024-02-28T01:38:59;94922.25;;;8.20;100.00
12077;BME280;12420;42.676;23.262;2024-02-28T01:41:25;94922.72;;;8.24;100.00
12077;BME280;12420;42.676;23.262;2024-02-28T01:43:52;94923.97;;;8.29;100.00
12077;BME280;12420;42.676;23.262;2024-02-28T01:46:23;94931.50;;;8.22;100.00
12077;BME280;12420;42.676;23.262;2024-02-28T01:48:53;94921.50;;;8.19;100.00
12077;BME280;12420;42.676;23.262;2024-02-28T01:51:21;94909.97;;;8.15;100.00
12077;BME280;12420;42.676;23.262;2024-02-28T01:53:50;94928.00;;;8.27;100.00
12077;BME280;12420;42.676;23.262;2024-02-28T01:56:18;94915.47;;;8.15;100.00
12077;BME280;12420;42.676;23.262;2024-02-28T01:58:47;94930.22;;;8.29;100.00
12077;BME280;12420;42.676;23.262;2024-02-28T02:01:14;94920.47;;;8.28;100.00
12077;BME280;12420;42.676;23.262;2024-02-28T02:03:42;94932.72;;;8.38;100.00
12077;BME280;12420;42.676;23.262;2024-02-28T02:06:11;94927.50;;;8.23;100.00
12077;BME280;12420;42.676;23.262;2024-02-28T02:08:38;94930.25;;;8.23;100.00
12077;BME280;12420;42.676;23.262;2024-02-28T02:11:05;94931.00;;;8.18;100.00
12077;BME280;12420;42.676;23.262;2024-02-28T02:13:32;94922.50;;;8.11;100.00
12077;BME280;12420;42.676;23.262;2024-02-28T02:16:00;94926.78;;;8.12;100.00
12077;BME280;12420;42.676;23.262;2024-02-28T02:18:27;94924.25;;;8.14;100.00
12077;BME280;12420;42.676;23.262;2024-02-28T02:20:58;94920.50;;;8.17;100.00
12077;BME280;12420;42.676;23.262;2024-02-28T02:23:27;94914.75;;;8.09;100.00
12077;BME280;12420;42.676;23.262;2024-02-28T02:25:54;94916.22;;;8.16;100.00
12077;BME280;12420;42.676;23.262;2024-02-28T02:28:21;94919.75;;;8.11;100.00
12077;BME280;12420;42.676;23.262;2024-02-28T02:30:47;94926.75;;;8.06;100.00
12077;BME280;12420;42.676;23.262;2024-02-28T02:33:14;94926.78;;;8.12;100.00
12077;BME280;12420;42.676;23.262;2024-02-28T02:35:41;94924.25;;;8.08;100.00
12077;BME280;12420;42.676;23.262;2024-02-28T02:38:08;94916.25;;;8.04;100.00
12077;BME280;12420;42.676;23.262;2024-02-28T02:40:36;94919.50;;;8.09;100.00
12077;BME280;12420;42.676;23.262;2024-02-28T02:43:03;94927.00;;;8.14;100.00
12077;BME280;12420;42.676;23.262;2024-02-28T02:45:29;94888.44;;;7.97;100.00
12077;BME280;12420;42.676;23.262;2024-02-28T02:47:56;94928.25;;;8.18;100.00
12077;BME280;12420;42.676;23.262;2024-02-28T02:50:23;94922.00;;;8.01;100.00
12077;BME280;12420;42.676;23.262;2024-02-28T02:52:49;94928.28;;;8.07;100.00
12077;BME280;12420;42.676;23.262;2024-02-28T02:55:16;94930.53;;;8.03;100.00
12077;BME280;12420;42.676;23.262;2024-02-28T02:57:44;94913.75;;;8.01;100.00
12077;BME280;12420;42.676;23.262;2024-02-28T03:00:12;94927.53;;;8.01;100.00
12077;BME280;12420;42.676;23.262;2024-02-28T03:02:39;94926.28;;;7.96;100.00
12077;BME280;12420;42.676;23.262;2024-02-28T03:05:06;94925.03;;;7.92;100.00
12077;BME280;12420;42.676;23.262;2024-02-28T03:07:33;94926.03;;;7.94;100.00
12077;BME280;12420;42.676;23.262;2024-02-28T03:10:00;94929.03;;;7.85;100.00
12077;BME280;12420;42.676;23.262;2024-02-28T03:12:27;94920.25;;;7.81;100.00
12077;BME280;12420;42.676;23.262;2024-02-28T03:14:56;94923.78;;;7.81;100.00
12077;BME280;12420;42.676;23.262;2024-02-28T03:17:23;94925.03;;;7.80;100.00
12077;BME280;12420;42.676;23.262;2024-02-28T03:19:50;94935.03;;;7.78;100.00
12077;BME280;12420;42.676;23.262;2024-02-28T03:22:16;94921.53;;;7.74;100.00
12077;BME280;12420;42.676;23.262;2024-02-28T03:24:43;94934.31;;;7.77;100.00
12077;BME280;12420;42.676;23.262;2024-02-28T03:27:10;94926.28;;;7.74;100.00
12077;BME280;12420;42.676;23.262;2024-02-28T03:29:37;94925.28;;;7.71;100.00
12077;BME280;12420;42.676;23.262;2024-02-28T03:32:06;94940.03;;;7.68;100.00
12077;BME280;12420;42.676;23.262;2024-02-28T03:34:33;94937.81;;;7.61;100.00
12077;BME280;12420;42.676;23.262;2024-02-28T03:37:00;94939.81;;;7.66;100.00
12077;BME280;12420;42.676;23.262;2024-02-28T03:39:27;94936.03;;;7.58;100.00
12077;BME280;12420;42.676;23.262;2024-02-28T03:41:54;94921.25;;;7.44;100.00
12077;BME280;12420;42.676;23.262;2024-02-28T03:44:21;94944.81;;;7.62;100.00
12077;BME280;12420;42.676;23.262;2024-02-28T03:46:48;94940.03;;;7.68;100.00
12077;BME280;12420;42.676;23.262;2024-02-28T03:49:16;94948.34;;;7.74;100.00
12077;BME280;12420;42.676;23.262;2024-02-28T03:51:43;94945.56;;;7.63;100.00
12077;BME280;12420;42.676;23.262;2024-02-28T03:54:09;94940.31;;;7.59;100.00
12077;BME280;12420;42.676;23.262;2024-02-28T03:56:36;94946.31;;;7.63;100.00
12077;BME280;12420;42.676;23.262;2024-02-28T03:59:03;94926.53;;;7.59;100.00
12077;BME280;12420;42.676;23.262;2024-02-28T04:01:30;94957.84;;;7.73;100.00
12077;BME280;12420;42.676;23.262;2024-02-28T04:03:57;94947.31;;;7.66;100.00
12077;BME280;12420;42.676;23.262;2024-02-28T04:06:25;94944.56;;;7.66;100.00
12077;BME280;12420;42.676;23.262;2024-02-28T04:08:52;94941.06;;;7.65;100.00
12077;BME280;12420;42.676;23.262;2024-02-28T04:11:19;94947.56;;;7.62;100.00
12077;BME280;12420;42.676;23.262;2024-02-28T04:13:46;94942.81;;;7.63;100.00
12077;BME280;12420;42.676;23.262;2024-02-28T04:16:13;94908.22;;;7.45;100.00
12077;BME280;12420;42.676;23.262;2024-02-28T04:18:39;94947.56;;;7.51;100.00
12077;BME280;12420;42.676;23.262;2024-02-28T04:21:06;94942.03;;;7.39;100.00
12077;BME280;12420;42.676;23.262;2024-02-28T04:23:34;94928.50;;;7.30;100.00
12077;BME280;12420;42.676;23.262;2024-02-28T04:26:01;94937.97;;;7.12;100.00
12077;BME280;12420;42.676;23.262;2024-02-28T04:28:28;94921.69;;;7.03;100.00
12077;BME280;12420;42.676;23.262;2024-02-28T04:30:55;94919.41;;;7.02;100.00
12077;BME280;12420;42.676;23.262;2024-02-28T04:33:22;94927.22;;;7.14;100.00
12077;BME280;12420;42.676;23.262;2024-02-28T04:35:49;94930.47;;;7.13;100.00
12077;BME280;12420;42.676;23.262;2024-02-28T04:38:15;94928.47;;;7.19;100.00
12077;BME280;12420;42.676;23.262;2024-02-28T04:40:44;94934.25;;;7.21;100.00
12077;BME280;12420;42.676;23.262;2024-02-28T04:43:11;94939.00;;;7.26;100.00
12077;BME280;12420;42.676;23.262;2024-02-28T04:45:37;94936.03;;;7.35;100.00
12077;BME280;12420;42.676;23.262;2024-02-28T04:48:05;94935.25;;;7.24;100.00
12077;BME280;12420;42.676;23.262;2024-02-28T04:50:32;94949.03;;;7.29;100.00
12077;BME280;12420;42.676;23.262;2024-02-28T04:52:59;94950.53;;;7.30;100.00
12077;BME280;12420;42.676;23.262;2024-02-28T04:55:26;94952.28;;;7.33;100.00
12077;BME280;12420;42.676;23.262;2024-02-28T04:57:55;94947.53;;;7.39;100.00
12077;BME280;12420;42.676;23.262;2024-02-28T05:00:22;94959.56;;;7.42;100.00
12077;BME280;12420;42.676;23.262;2024-02-28T05:02:48;94956.78;;;7.36;100.00
12077;BME280;12420;42.676;23.262;2024-02-28T05:05:15;94962.31;;;7.36;100.00
12077;BME280;12420;42.676;23.262;2024-02-28T05:07:42;94952.03;;;7.43;100.00
12077;BME280;12420;42.676;23.262;2024-02-28T05:10:09;94945.03;;;7.42;100.00
12077;BME280;12420;42.676;23.262;2024-02-28T05:12:36;94965.53;;;7.35;100.00
12077;BME280;12420;42.676;23.262;2024-02-28T05:15:05;94863.28;;;6.65;100.00
12077;BME280;12420;42.676;23.262;2024-02-28T05:17:32;94974.28;;;7.22;100.00
12077;BME280;12420;42.676;23.262;2024-02-28T05:19:59;94972.28;;;7.23;100.00
12077;BME280;12420;42.676;23.262;2024-02-28T05:22:25;94980.03;;;7.24;100.00
12077;BME280;12420;42.676;23.262;2024-02-28T05:24:52;94974.78;;;7.26;100.00
12077;BME280;12420;42.676;23.262;2024-02-28T05:27:19;94981.56;;;7.25;100.00
12077;BME280;12420;42.676;23.262;2024-02-28T05:29:46;94986.84;;;7.40;100.00
12077;BME280;12420;42.676;23.262;2024-02-28T05:32:14;94991.25;;;7.09;100.00
12077;BME280;12420;42.676;23.262;2024-02-28T05:34:42;94979.75;;;7.11;100.00
12077;BME280;12420;42.676;23.262;2024-02-28T05:37:09;94974.97;;;7.06;100.00
12077;BME280;12420;42.676;23.262;2024-02-28T05:39:36;95009.09;;;7.25;100.00
12077;BME280;12420;42.676;23.262;2024-02-28T05:42:04;95001.59;;;7.31;100.00
12077;BME280;12420;42.676;23.262;2024-02-28T05:44:30;95006.84;;;7.35;100.00
12077;BME280;12420;42.676;23.262;2024-02-28T05:46:57;95006.38;;;7.48;100.00
12077;BME280;12420;42.676;23.262;2024-02-28T05:49:25;95009.13;;;7.48;100.00
12077;BME280;12420;42.676;23.262;2024-02-28T05:51:52;95011.66;;;7.57;100.00
12077;BME280;12420;42.676;23.262;2024-02-28T05:54:19;95016.97;;;7.66;100.00
12077;BME280;12420;42.676;23.262;2024-02-28T05:56:46;95015.97;;;7.75;100.00
12077;BME280;12420;42.676;23.262;2024-02-28T05:59:13;94970.59;;;7.53;100.00
12077;BME280;12420;42.676;23.262;2024-02-28T06:01:40;95027.28;;;7.94;100.00
12077;BME280;12420;42.676;23.262;2024-02-28T06:04:07;95033.53;;;8.05;100.00
12077;BME280;12420;42.676;23.262;2024-02-28T06:06:35;95014.47;;;8.13;100.00
12077;BME280;12420;42.676;23.262;2024-02-28T06:09:02;95028.50;;;8.26;100.00
12077;BME280;12420;42.676;23.262;2024-02-28T06:11:29;95029.56;;;8.40;100.00
12077;BME280;12420;42.676;23.262;2024-02-28T06:13:56;95030.03;;;8.50;100.00
12077;BME280;12420;42.676;23.262;2024-02-28T06:16:22;95033.28;;;8.60;100.00
12077;BME280;12420;42.676;23.262;2024-02-28T06:18:49;95009.75;;;8.47;100.00
12077;BME280;12420;42.676;23.262;2024-02-28T06:21:16;95040.75;;;8.82;100.00
12077;BME280;12420;42.676;23.262;2024-02-28T06:23:44;95036.97;;;8.96;100.00
12077;BME280;12420;42.676;23.262;2024-02-28T06:26:11;95041.44;;;9.10;100.00
12077;BME280;12420;42.676;23.262;2024-02-28T06:28:42;95050.16;;;9.26;100.00
12077;BME280;12420;42.676;23.262;2024-02-28T06:31:14;95044.91;;;9.22;100.00
12077;BME280;12420;42.676;23.262;2024-02-28T06:33:41;95046.38;;;9.34;100.00
12077;BME280;12420;42.676;23.262;2024-02-28T06:36:08;95049.63;;;9.44;100.00
12077;BME280;12420;42.676;23.262;2024-02-28T06:38:35;95050.28;;;9.62;100.00
12077;BME280;12420;42.676;23.262;2024-02-28T06:41:04;95051.25;;;9.70;100.00
12077;BME280;12420;42.676;23.262;2024-02-28T06:43:33;95045.97;;;9.72;100.00
12077;BME280;12420;42.676;23.262;2024-02-28T06:46:00;95064.44;;;9.88;100.00
12077;BME280;12420;42.676;23.262;2024-02-28T06:48:27;95049.34;;;9.89;100.00
12077;BME280;12420;42.676;23.262;2024-02-28T06:50:54;95056.31;;;10.02;100.00
12077;BME280;12420;42.676;23.262;2024-02-28T06:53:21;95052.75;;;10.07;100.00
12077;BME280;12420;42.676;23.262;2024-02-28T06:55:48;95057.84;;;10.03;100.00
12077;BME280;12420;42.676;23.262;2024-02-28T06:58:16;95059.25;;;10.15;100.00
12077;BME280;12420;42.676;23.262;2024-02-28T07:00:43;95054.00;;;10.11;100.00
12077;BME280;12420;42.676;23.262;2024-02-28T07:03:09;95060.44;;;10.31;100.00
12077;BME280;12420;42.676;23.262;2024-02-28T07:05:36;95052.53;;;10.40;100.00
12077;BME280;12420;42.676;23.262;2024-02-28T07:08:04;95058.31;;;10.42;100.00
12077;BME280;12420;42.676;23.262;2024-02-28T07:10:30;95065.31;;;10.49;100.00
12077;BME280;12420;42.676;23.262;2024-02-28T07:12:57;95064.00;;;10.56;100.00
12077;BME280;12420;42.676;23.262;2024-02-28T07:15:26;95058.94;;;10.60;100.00
12077;BME280;12420;42.676;23.262;2024-02-28T07:17:53;95067.72;;;10.64;100.00
12077;BME280;12420;42.676;23.262;2024-02-28T07:20:20;95060.38;;;10.67;100.00
12077;BME280;12420;42.676;23.262;2024-02-28T07:22:46;95063.41;;;10.69;100.00
12077;BME280;12420;42.676;23.262;2024-02-28T07:25:13;95070.19;;;10.68;100.00
12077;BME280;12420;42.676;23.262;2024-02-28T07:27:40;95067.34;;;10.73;100.00
12077;BME280;12420;42.676;23.262;2024-02-28T07:30:08;95059.66;;;10.66;100.00
12077;BME280;12420;42.676;23.262;2024-02-28T07:32:36;95056.88;;;10.66;100.00
12077;BME280;12420;42.676;23.262;2024-02-28T07:35:03;95068.88;;;10.74;100.00
12077;BME280;12420;42.676;23.262;2024-02-28T07:37:31;95052.78;;;10.73;100.00
12077;BME280;12420;42.676;23.262;2024-02-28T07:39:58;95069.81;;;10.82;100.00
12077;BME280;12420;42.676;23.262;2024-02-28T07:42:25;95071.19;;;10.95;100.00
12077;BME280;12420;42.676;23.262;2024-02-28T07:44:52;95066.25;;;11.12;100.00
12077;BME280;12420;42.676;23.262;2024-02-28T07:47:22;95066.84;;;11.24;100.00
12077;BME280;12420;42.676;23.262;2024-02-28T07:49:50;95070.38;;;11.24;100.00
12077;BME280;12420;42.676;23.262;2024-02-28T07:52:17;95069.44;;;11.41;100.00
12077;BME280;12420;42.676;23.262;2024-02-28T07:54:44;95073.03;;;11.55;100.00
12077;BME280;12420;42.676;23.262;2024-02-28T07:57:11;95072.63;;;11.69;100.00
12077;BME280;12420;42.676;23.262;2024-02-28T07:59:40;95075.25;;;11.81;100.00
12077;BME280;12420;42.676;23.262;2024-02-28T08:02:07;95066.47;;;11.77;100.00
12077;BME280;12420;42.676;23.262;2024-02-28T08:04:35;95074.13;;;12.08;99.48
12077;BME280;12420;42.676;23.262;2024-02-28T08:07:03;95071.44;;;12.22;98.66
12077;BME280;12420;42.676;23.262;2024-02-28T08:09:30;95074.72;;;12.39;96.20
12077;BME280;12420;42.676;23.262;2024-02-28T08:11:57;95076.19;;;12.40;95.46
12077;BME280;12420;42.676;23.262;2024-02-28T08:14:24;95066.28;;;12.45;95.24
12077;BME280;12420;42.676;23.262;2024-02-28T08:16:51;95060.19;;;12.46;94.23
12077;BME280;12420;42.676;23.262;2024-02-28T08:19:17;95057.47;;;12.59;93.47
12077;BME280;12420;42.676;23.262;2024-02-28T08:21:44;95063.06;;;12.73;94.28
12077;BME280;12420;42.676;23.262;2024-02-28T08:24:12;95069.69;;;12.83;90.99
12077;BME280;12420;42.676;23.262;2024-02-28T08:26:40;95074.38;;;12.75;90.83
12077;BME280;12420;42.676;23.262;2024-02-28T08:29:07;95063.19;;;12.80;91.05
12077;BME280;12420;42.676;23.262;2024-02-28T08:31:39;95057.91;;;12.77;91.22
12077;BME280;12420;42.676;23.262;2024-02-28T08:34:06;95055.06;;;12.82;91.59
12077;BME280;12420;42.676;23.262;2024-02-28T08:36:33;95058.16;;;12.79;90.18
12077;BME280;12420;42.676;23.262;2024-02-28T08:38:59;95064.88;;;12.84;90.48
12077;BME280;12420;42.676;23.262;2024-02-28T08:41:27;95039.53;;;12.74;89.63
12077;BME280;12420;42.676;23.262;2024-02-28T08:43:54;95056.44;;;12.89;89.29
12077;BME280;12420;42.676;23.262;2024-02-28T08:46:21;95059.56;;;12.86;90.00
12077;BME280;12420;42.676;23.262;2024-02-28T08:48:47;94996.78;;;12.50;89.86
12077;BME280;12420;42.676;23.262;2024-02-28T08:51:14;95060.41;;;12.94;90.34
12077;BME280;12420;42.676;23.262;2024-02-28T08:53:41;95035.50;;;12.88;89.29
12077;BME280;12420;42.676;23.262;2024-02-28T08:56:08;95048.66;;;13.01;89.10
12077;BME280;12420;42.676;23.262;2024-02-28T08:58:36;95049.19;;;12.99;88.62
12077;BME280;12420;42.676;23.262;2024-02-28T09:01:03;95052.09;;;13.07;89.37
12077;BME280;12420;42.676;23.262;2024-02-28T09:03:30;95057.97;;;13.17;89.02
12077;BME280;12420;42.676;23.262;2024-02-28T09:05:57;95052.13;;;13.34;88.98
12077;BME280;12420;42.676;23.262;2024-02-28T09:08:24;95058.44;;;13.48;88.86
12077;BME280;12420;42.676;23.262;2024-02-28T09:10:50;95025.81;;;13.35;86.65
12077;BME280;12420;42.676;23.262;2024-02-28T09:13:17;95059.50;;;13.44;86.53
12077;BME280;12420;42.676;23.262;2024-02-28T09:15:46;95059.84;;;13.41;86.42
12077;BME280;12420;42.676;23.262;2024-02-28T09:18:13;95057.16;;;13.49;86.17
12077;BME280;12420;42.676;23.262;2024-02-28T09:20:40;95050.19;;;13.42;86.06
12077;BME280;12420;42.676;23.262;2024-02-28T09:23:06;95057.91;;;13.49;85.70
12077;BME280;12420;42.676;23.262;2024-02-28T09:25:33;95038.13;;;13.39;86.14
12077;BME280;12420;42.676;23.262;2024-02-28T09:28:00;95051.47;;;13.54;86.02
12077;BME280;12420;42.676;23.262;2024-02-28T09:30:27;95050.72;;;13.54;85.55
12077;BME280;12420;42.676;23.262;2024-02-28T09:32:55;95020.66;;;13.52;85.54
12077;BME280;12420;42.676;23.262;2024-02-28T09:35:22;95037.19;;;13.71;86.75
12077;BME280;12420;42.676;23.262;2024-02-28T09:37:49;95041.69;;;13.87;85.00
12077;BME280;12420;42.676;23.262;2024-02-28T09:40:16;95022.16;;;14.01;83.59
12077;BME280;12420;42.676;23.262;2024-02-28T09:42:47;95036.59;;;14.33;82.57
12077;BME280;12420;42.676;23.262;2024-02-28T09:45:20;95022.88;;;14.36;82.23
12077;BME280;12420;42.676;23.262;2024-02-28T09:47:48;95030.00;;;14.65;79.55
12077;BME280;12420;42.676;23.262;2024-02-28T09:50:17;95031.44;;;14.80;79.41
12077;BME280;12420;42.676;23.262;2024-02-28T09:52:45;95019.56;;;14.79;78.54
12077;BME280;12420;42.676;23.262;2024-02-28T09:55:11;95021.50;;;14.92;79.15
12077;BME280;12420;42.676;23.262;2024-02-28T09:57:39;95029.19;;;14.99;77.42
12077;BME280;12420;42.676;23.262;2024-02-28T10:00:09;95026.97;;;15.05;75.90
12077;BME280;12420;42.676;23.262;2024-02-28T10:02:37;95000.38;;;14.75;76.74
12077;BME280;12420;42.676;23.262;2024-02-28T10:05:06;95027.13;;;14.71;78.29
12077;BME280;12420;42.676;23.262;2024-02-28T10:07:36;95017.50;;;14.80;78.40
12077;BME280;12420;42.676;23.262;2024-02-28T10:10:03;95023.69;;;14.86;77.88
12077;BME280;12420;42.676;23.262;2024-02-28T10:12:30;95025.38;;;14.89;77.88
12077;BME280;12420;42.676;23.262;2024-02-28T10:14:57;95016.47;;;14.90;77.76
12077;BME280;12420;42.676;23.262;2024-02-28T10:17:23;95024.13;;;14.97;77.49
12077;BME280;12420;42.676;23.262;2024-02-28T10:19:51;95022.28;;;15.00;77.11
12077;BME280;12420;42.676;23.262;2024-02-28T10:22:18;95008.25;;;15.13;77.10
12077;BME280;12420;42.676;23.262;2024-02-28T10:24:47;95018.28;;;15.09;76.86
12077;BME280;12420;42.676;23.262;2024-02-28T10:27:16;95007.41;;;15.26;76.93
12077;BME280;12420;42.676;23.262;2024-02-28T10:29:44;95003.94;;;15.41;76.05
12077;BME280;12420;42.676;23.262;2024-02-28T10:32:12;94995.91;;;15.30;75.86
12077;BME280;12420;42.676;23.262;2024-02-28T10:34:39;94996.75;;;15.53;74.74
12077;BME280;12420;42.676;23.262;2024-02-28T10:37:06;95001.31;;;15.72;74.07
12077;BME280;12420;42.676;23.262;2024-02-28T10:39:34;94982.72;;;15.74;72.57
12077;BME280;12420;42.676;23.262;2024-02-28T10:42:03;94984.63;;;15.95;71.77
12077;BME280;12420;42.676;23.262;2024-02-28T10:44:31;94983.91;;;16.02;72.26
12077;BME280;12420;42.676;23.262;2024-02-28T10:47:00;94976.84;;;15.93;71.80
12077;BME280;12420;42.676;23.262;2024-02-28T10:49:27;94977.03;;;16.03;71.94
12077;BME280;12420;42.676;23.262;2024-02-28T10:51:56;94983.72;;;16.08;71.61
12077;BME280;12420;42.676;23.262;2024-02-28T10:54:24;94939.59;;;15.83;71.41
12077;BME280;12420;42.676;23.262;2024-02-28T10:56:52;94977.25;;;16.20;71.35
12077;BME280;12420;42.676;23.262;2024-02-28T10:59:23;94962.72;;;16.22;70.18
12077;BME280;12420;42.676;23.262;2024-02-28T11:01:50;94961.97;;;16.14;68.54
12077;BME280;12420;42.676;23.262;2024-02-28T11:04:17;94961.59;;;16.17;67.92
12077;BME280;12420;42.676;23.262;2024-02-28T11:06:48;94966.84;;;16.21;68.75
12077;BME280;12420;42.676;23.262;2024-02-28T11:09:19;94963.84;;;16.19;69.46
12077;BME280;12420;42.676;23.262;2024-02-28T11:11:48;94969.06;;;16.22;69.93
12077;BME280;12420;42.676;23.262;2024-02-28T11:14:15;94954.16;;;16.35;70.29
12077;BME280;12420;42.676;23.262;2024-02-28T11:16:43;94912.66;;;16.09;69.85
12077;BME280;12420;42.676;23.262;2024-02-28T11:19:19;94952.50;;;16.32;68.66
12077;BME280;12420;42.676;23.262;2024-02-28T11:21:52;94943.38;;;16.39;68.16
12077;BME280;12420;42.676;23.262;2024-02-28T11:24:23;94944.84;;;16.40;68.15
12077;BME280;12420;42.676;23.262;2024-02-28T11:26:50;94931.81;;;16.20;68.02
12077;BME280;12420;42.676;23.262;2024-02-28T11:29:22;94936.25;;;16.08;67.35
12077;BME280;12420;42.676;23.262;2024-02-28T11:31:51;94922.13;;;16.05;66.88
12077;BME280;12420;42.676;23.262;2024-02-28T11:34:18;94934.63;;;16.35;65.85
12077;BME280;12420;42.676;23.262;2024-02-28T11:36:47;94935.34;;;16.43;64.47
12077;BME280;12420;42.676;23.262;2024-02-28T11:39:14;94924.38;;;16.38;64.37
12077;BME280;12420;42.676;23.262;2024-02-28T11:41:42;94925.47;;;16.58;64.17
12077;BME280;12420;42.676;23.262;2024-02-28T11:44:12;94927.72;;;16.52;62.45
12077;BME280;12420;42.676;23.262;2024-02-28T11:46:42;94922.88;;;16.60;61.60
12077;BME280;12420;42.676;23.262;2024-02-28T11:49:11;94919.53;;;16.61;62.63
12077;BME280;12420;42.676;23.262;2024-02-28T11:51:40;94915.63;;;16.57;62.83
12077;BME280;12420;42.676;23.262;2024-02-28T11:54:07;94902.94;;;16.40;62.91
12077;BME280;12420;42.676;23.262;2024-02-28T11:56:34;94903.88;;;16.50;61.95
12077;BME280;12420;42.676;23.262;2024-02-28T11:59:01;94894.00;;;16.57;62.26
12077;BME280;12420;42.676;23.262;2024-02-28T12:01:36;94896.22;;;16.51;61.98
12077;BME280;12420;42.676;23.262;2024-02-28T12:04:04;94874.44;;;16.57;61.13
12077;BME280;12420;42.676;23.262;2024-02-28T12:06:34;94885.81;;;16.52;61.95
12077;BME280;12420;42.676;23.262;2024-02-28T12:09:01;94890.09;;;16.45;62.45
12077;BME280;12420;42.676;23.262;2024-02-28T12:11:29;94879.69;;;16.38;60.82
12077;BME280;12420;42.676;23.262;2024-02-28T12:13:56;94880.81;;;16.27;61.40
12077;BME280;12420;42.676;23.262;2024-02-28T12:16:24;94864.59;;;16.02;62.53
12077;BME280;12420;42.676;23.262;2024-02-28T12:18:53;94874.09;;;16.38;61.84
12077;BME280;12420;42.676;23.262;2024-02-28T12:21:20;94871.50;;;16.32;62.75
12077;BME280;12420;42.676;23.262;2024-02-28T12:23:49;94861.06;;;16.25;62.34
12077;BME280;12420;42.676;23.262;2024-02-28T12:26:16;94871.50;;;16.32;63.31
12077;BME280;12420;42.676;23.262;2024-02-28T12:28:44;94864.22;;;16.44;62.57
12077;BME280;12420;42.676;23.262;2024-02-28T12:31:11;94869.63;;;16.35;62.79
12077;BME280;12420;42.676;23.262;2024-02-28T12:33:38;94864.06;;;16.27;62.78
12077;BME280;12420;42.676;23.262;2024-02-28T12:36:06;94853.63;;;16.20;62.49
12077;BME280;12420;42.676;23.262;2024-02-28T12:38:33;94856.97;;;16.34;62.23
12077;BME280;12420;42.676;23.262;2024-02-28T12:41:01;94867.75;;;16.45;61.72
12077;BME280;12420;42.676;23.262;2024-02-28T12:43:29;94858.47;;;16.27;60.05
12077;BME280;12420;42.676;23.262;2024-02-28T12:45:56;94860.88;;;16.31;59.85
12077;BME280;12420;42.676;23.262;2024-02-28T12:48:23;94853.41;;;16.41;60.36
12077;BME280;12420;42.676;23.262;2024-02-28T12:50:50;94850.78;;;16.50;59.91